sensor_id;sensor_type;location;lat;lon;timestamp;pressure;altitude;pressure_sealevel;temperature;humidity
17525;BME280;40431;52.198;9.902;2022-10-16T00:02:17;100202.44;;;14.19;100.00
17525;BME280;40431;52.198;9.902;2022-10-16T00:04:44;100205.66;;;14.13;100.00
17525;BME280;40431;52.198;9.902;2022-10-16T00:07:10;100204.81;;;14.12;100.00
17525;BME280;40431;52.198;9.902;2022-10-16T00:09:37;100213.13;;;14.11;100.00
17525;BME280;40431;52.198;9.902;2022-10-16T00:12:03;100207.88;;;14.08;100.00
17525;BME280;40431;52.198;9.902;2022-10-16T00:14:33;100206.28;;;14.05;100.00
17525;BME280;40431;52.198;9.902;2022-10-16T00:16:59;100210.13;;;14.02;100.00
17525;BME280;40431;52.198;9.902;2022-10-16T00:19:26;100208.50;;;14.00;100.00
17525;BME280;40431;52.198;9.902;2022-10-16T00:21:52;100215.69;;;14.01;100.00
17525;BME280;40431;52.198;9.902;2022-10-16T00:24:19;100215.09;;;13.97;99.93
17525;BME280;40431;52.198;9.902;2022-10-16T00:26:49;100208.03;;;13.95;100.00
17525;BME280;40431;52.198;9.902;2022-10-16T00:29:15;100213.50;;;13.95;100.00
17525;BME280;40431;52.198;9.902;2022-10-16T00:31:43;100206.03;;;13.97;100.00
17525;BME280;40431;52.198;9.902;2022-10-16T00:34:10;100216.94;;;13.97;100.00
17525;BME280;40431;52.198;9.902;2022-10-16T00:36:36;100222.13;;;14.00;100.00
17525;BME280;40431;52.198;9.902;2022-10-16T00:39:03;100223.28;;;13.97;100.00
17525;BME280;40431;52.198;9.902;2022-10-16T00:41:30;100239.72;;;13.96;100.00
17525;BME280;40431;52.198;9.902;2022-10-16T00:43:58;100239.72;;;13.96;100.00
17525;BME280;40431;52.198;9.902;2022-10-16T00:46:28;100237.00;;;13.96;100.00
17525;BME280;40431;52.198;9.902;2022-10-16T00:49:00;100229.34;;;14.01;100.00
17525;BME280;40431;52.198;9.902;2022-10-16T00:51:30;100236.03;;;13.97;100.00
17525;BME280;40431;52.198;9.902;2022-10-16T00:53:58;100239.72;;;13.96;100.00
17525;BME280;40431;52.198;9.902;2022-10-16T00:56:26;100242.22;;;13.99;100.00
17525;BME280;40431;52.198;9.902;2022-10-16T00:58:52;100236.03;;;13.97;100.00
17525;BME280;40431;52.198;9.902;2022-10-16T01:01:19;100242.00;;;13.91;100.00
17525;BME280;40431;52.198;9.902;2022-10-16T01:03:45;100239.25;;;13.91;100.00
17525;BME280;40431;52.198;9.902;2022-10-16T01:06:21;100241.88;;;13.92;100.00
17525;BME280;40431;52.198;9.902;2022-10-16T01:11:45;100238.13;;;13.93;100.00
17525;BME280;40431;52.198;9.902;2022-10-16T01:14:21;100232.94;;;13.90;100.00
17525;BME280;40431;52.198;9.902;2022-10-16T01:16:53;100242.59;;;13.94;100.00
17525;BME280;40431;52.198;9.902;2022-10-16T01:19:31;100236.41;;;13.92;100.00
17525;BME280;40431;52.198;9.902;2022-10-16T01:22:03;100233.81;;;13.91;100.00
17525;BME280;40431;52.198;9.902;2022-10-16T01:24:34;100232.94;;;13.90;100.00
17525;BME280;40431;52.198;9.902;2022-10-16T01:27:11;100241.50;;;13.85;100.00
17525;BME280;40431;52.198;9.902;2022-10-16T01:29:44;100244.72;;;13.91;100.00
17525;BME280;40431;52.198;9.902;2022-10-16T01:32:16;100239.50;;;13.88;100.00
17525;BME280;40431;52.198;9.902;2022-10-16T01:34:48;100243.97;;;13.89;100.00
17525;BME280;40431;52.198;9.902;2022-10-16T01:37:20;100245.44;;;13.81;100.00
17525;BME280;40431;52.198;9.902;2022-10-16T01:39:49;100246.94;;;13.85;100.00
17525;BME280;40431;52.198;9.902;2022-10-16T01:42:22;100243.19;;;13.86;100.00
17525;BME280;40431;52.198;9.902;2022-10-16T01:44:51;100251.75;;;13.82;100.00
17525;BME280;40431;52.198;9.902;2022-10-16T01:47:22;100258.06;;;13.82;100.00
17525;BME280;40431;52.198;9.902;2022-10-16T01:49:50;100261.81;;;13.81;100.00
17525;BME280;40431;52.198;9.902;2022-10-16T01:52:22;100266.38;;;13.81;100.00
17525;BME280;40431;52.198;9.902;2022-10-16T01:54:51;100262.78;;;13.80;100.00
17525;BME280;40431;52.198;9.902;2022-10-16T01:57:21;100263.75;;;13.79;100.00
17525;BME280;40431;52.198;9.902;2022-10-16T01:59:54;100264.53;;;13.81;100.00
17525;BME280;40431;52.198;9.902;2022-10-16T02:02:22;100264.75;;;13.78;100.00
17525;BME280;40431;52.198;9.902;2022-10-16T02:04:57;100274.41;;;13.82;100.00
17525;BME280;40431;52.198;9.902;2022-10-16T02:07:24;100275.78;;;13.77;100.00
17525;BME280;40431;52.198;9.902;2022-10-16T02:09:51;100281.09;;;13.78;100.00
17525;BME280;40431;52.198;9.902;2022-10-16T02:12:23;100284.94;;;13.76;100.00
17525;BME280;40431;52.198;9.902;2022-10-16T02:14:52;100287.53;;;13.77;100.00
17525;BME280;40431;52.198;9.902;2022-10-16T02:17:19;100289.53;;;13.75;100.00
17525;BME280;40431;52.198;9.902;2022-10-16T02:19:48;100290.50;;;13.74;100.00
17525;BME280;40431;52.198;9.902;2022-10-16T02:22:19;100295.22;;;13.72;100.00
17525;BME280;40431;52.198;9.902;2022-10-16T02:24:52;100291.75;;;13.70;100.00
17525;BME280;40431;52.198;9.902;2022-10-16T02:27:26;100292.72;;;13.69;100.00
17525;BME280;40431;52.198;9.902;2022-10-16T02:30:00;100306.59;;;13.66;100.00
17525;BME280;40431;52.198;9.902;2022-10-16T02:32:33;100310.31;;;13.65;100.00
17525;BME280;40431;52.198;9.902;2022-10-16T02:35:01;100301.41;;;13.63;100.00
17525;BME280;40431;52.198;9.902;2022-10-16T02:37:28;100299.66;;;13.62;100.00
17525;BME280;40431;52.198;9.902;2022-10-16T02:39:57;100298.16;;;13.58;100.00
17525;BME280;40431;52.198;9.902;2022-10-16T02:42:29;100297.78;;;13.62;100.00
17525;BME280;40431;52.198;9.902;2022-10-16T02:44:55;100291.69;;;13.59;100.00
17525;BME280;40431;52.198;9.902;2022-10-16T02:47:22;100292.72;;;13.58;100.00
17525;BME280;40431;52.198;9.902;2022-10-16T02:49:48;100291.94;;;13.56;100.00
17525;BME280;40431;52.198;9.902;2022-10-16T02:52:15;100300.13;;;13.56;100.00
17525;BME280;40431;52.198;9.902;2022-10-16T02:54:41;100293.94;;;13.53;100.00
17525;BME280;40431;52.198;9.902;2022-10-16T02:57:08;100291.31;;;13.52;100.00
17525;BME280;40431;52.198;9.902;2022-10-16T02:59:35;100292.19;;;13.52;100.00
17525;BME280;40431;52.198;9.902;2022-10-16T03:02:02;100290.44;;;13.51;100.00
17525;BME280;40431;52.198;9.902;2022-10-16T03:04:28;100296.88;;;13.50;100.00
17525;BME280;40431;52.198;9.902;2022-10-16T03:06:55;100293.31;;;13.50;100.00
17525;BME280;40431;52.198;9.902;2022-10-16T03:09:21;100280.78;;;13.47;100.00
17525;BME280;40431;52.198;9.902;2022-10-16T03:11:48;100286.22;;;13.47;100.00
17525;BME280;40431;52.198;9.902;2022-10-16T03:14:15;100284.75;;;13.43;100.00
17525;BME280;40431;52.198;9.902;2022-10-16T03:16:43;100278.78;;;13.38;100.00
17525;BME280;40431;52.198;9.902;2022-10-16T03:19:09;100272.78;;;13.33;100.00
17525;BME280;40431;52.198;9.902;2022-10-16T03:21:36;100275.75;;;13.30;100.00
17525;BME280;40431;52.198;9.902;2022-10-16T03:24:03;100284.03;;;13.28;100.00
17525;BME280;40431;52.198;9.902;2022-10-16T03:26:29;100282.75;;;13.21;100.00
17525;BME280;40431;52.198;9.902;2022-10-16T03:28:56;100284.63;;;13.20;100.00
17525;BME280;40431;52.198;9.902;2022-10-16T03:31:22;100292.28;;;13.15;100.00
17525;BME280;40431;52.198;9.902;2022-10-16T03:33:50;100293.13;;;13.16;100.00
17525;BME280;40431;52.198;9.902;2022-10-16T03:36:17;100293.63;;;13.10;100.00
17525;BME280;40431;52.198;9.902;2022-10-16T03:38:43;100291.88;;;13.09;100.00
17525;BME280;40431;52.198;9.902;2022-10-16T03:41:10;100287.53;;;13.06;100.00
17525;BME280;40431;52.198;9.902;2022-10-16T03:43:36;100297.66;;;13.04;100.00
17525;BME280;40431;52.198;9.902;2022-10-16T03:46:03;100289.72;;;13.01;100.00
17525;BME280;40431;52.198;9.902;2022-10-16T03:48:29;100289.31;;;12.94;100.00
17525;BME280;40431;52.198;9.902;2022-10-16T03:50:58;100293.78;;;12.95;100.00
17525;BME280;40431;52.198;9.902;2022-10-16T03:53:25;100300.56;;;12.90;100.00
17525;BME280;40431;52.198;9.902;2022-10-16T03:55:51;100290.97;;;12.84;100.00
17525;BME280;40431;52.198;9.902;2022-10-16T03:58:18;100291.97;;;12.83;100.00
17525;BME280;40431;52.198;9.902;2022-10-16T04:00:45;100297.31;;;12.84;100.00
17525;BME280;40431;52.198;9.902;2022-10-16T04:03:13;100302.53;;;12.88;100.00
17525;BME280;40431;52.198;9.902;2022-10-16T04:05:39;100301.06;;;12.95;100.00
17525;BME280;40431;52.198;9.902;2022-10-16T04:08:07;100298.94;;;12.87;100.00
17525;BME280;40431;52.198;9.902;2022-10-16T04:10:34;100288.13;;;12.85;100.00
17525;BME280;40431;52.198;9.902;2022-10-16T04:13:00;100283.72;;;12.84;100.00
17525;BME280;40431;52.198;9.902;2022-10-16T04:15:27;100294.59;;;12.84;100.00
17525;BME280;40431;52.198;9.902;2022-10-16T04:17:53;100299.38;;;12.81;100.00
17525;BME280;40431;52.198;9.902;2022-10-16T04:20:20;100315.59;;;12.82;100.00
17525;BME280;40431;52.198;9.902;2022-10-16T04:22:46;100313.09;;;12.79;100.00
17525;BME280;40431;52.198;9.902;2022-10-16T04:25:14;100317.66;;;12.79;100.00
17525;BME280;40431;52.198;9.902;2022-10-16T04:27:41;100329.63;;;12.76;100.00
17525;BME280;40431;52.198;9.902;2022-10-16T04:30:08;100326.19;;;12.74;100.00
17525;BME280;40431;52.198;9.902;2022-10-16T04:32:34;100329.63;;;12.76;100.00
17525;BME280;40431;52.198;9.902;2022-10-16T04:35:01;100331.19;;;12.80;100.00
17525;BME280;40431;52.198;9.902;2022-10-16T04:37:28;100325.09;;;12.77;100.00
17525;BME280;40431;52.198;9.902;2022-10-16T04:39:54;100334.22;;;12.76;100.00
17525;BME280;40431;52.198;9.902;2022-10-16T04:42:22;100328.66;;;12.77;100.00
17525;BME280;40431;52.198;9.902;2022-10-16T04:44:49;100307.03;;;12.76;100.00
17525;BME280;40431;52.198;9.902;2022-10-16T04:47:15;100313.00;;;12.81;100.00
17525;BME280;40431;52.198;9.902;2022-10-16T04:49:42;100313.09;;;12.79;100.00
17525;BME280;40431;52.198;9.902;2022-10-16T04:52:08;100311.38;;;12.78;100.00
17525;BME280;40431;52.198;9.902;2022-10-16T04:54:35;100311.13;;;12.81;100.00
17525;BME280;40431;52.198;9.902;2022-10-16T04:57:02;100312.88;;;12.82;100.00
17525;BME280;40431;52.198;9.902;2022-10-16T04:59:31;100326.34;;;12.84;100.00
17525;BME280;40431;52.198;9.902;2022-10-16T05:01:57;100335.84;;;12.78;100.00
17525;BME280;40431;52.198;9.902;2022-10-16T05:04:24;100334.63;;;12.82;100.00
17525;BME280;40431;52.198;9.902;2022-10-16T05:06:51;100336.38;;;12.83;100.00
17525;BME280;40431;52.198;9.902;2022-10-16T05:09:17;100350.72;;;12.85;100.00
17525;BME280;40431;52.198;9.902;2022-10-16T05:11:44;100346.28;;;12.84;100.00
17525;BME280;40431;52.198;9.902;2022-10-16T05:14:10;100332.88;;;12.81;100.00
17525;BME280;40431;52.198;9.902;2022-10-16T05:16:38;100337.47;;;12.81;100.00
17525;BME280;40431;52.198;9.902;2022-10-16T05:19:04;100344.66;;;12.82;100.00
17525;BME280;40431;52.198;9.902;2022-10-16T05:21:31;100345.28;;;12.85;100.00
17525;BME280;40431;52.198;9.902;2022-10-16T05:23:57;100332.88;;;12.81;100.00
17525;BME280;40431;52.198;9.902;2022-10-16T05:26:24;100352.72;;;12.83;100.00
17525;BME280;40431;52.198;9.902;2022-10-16T05:28:50;100349.00;;;12.84;100.00
17525;BME280;40431;52.198;9.902;2022-10-16T05:31:17;100361.53;;;12.87;100.00
17525;BME280;40431;52.198;9.902;2022-10-16T05:33:45;100366.19;;;12.85;100.00
17525;BME280;40431;52.198;9.902;2022-10-16T05:36:11;100373.59;;;12.83;100.00
17525;BME280;40431;52.198;9.902;2022-10-16T05:38:38;100376.44;;;12.81;100.00
17525;BME280;40431;52.198;9.902;2022-10-16T05:41:05;100374.91;;;12.77;100.00
17525;BME280;40431;52.198;9.902;2022-10-16T05:43:32;100382.53;;;12.72;100.00
17525;BME280;40431;52.198;9.902;2022-10-16T05:46:00;100375.16;;;12.74;100.00
17525;BME280;40431;52.198;9.902;2022-10-16T05:48:27;100383.19;;;12.76;100.00
17525;BME280;40431;52.198;9.902;2022-10-16T05:50:59;100383.84;;;12.79;100.00
17525;BME280;40431;52.198;9.902;2022-10-16T05:53:27;100381.66;;;12.84;100.00
17525;BME280;40431;52.198;9.902;2022-10-16T05:55:54;100369.78;;;12.85;100.00
17525;BME280;40431;52.198;9.902;2022-10-16T05:58:21;100376.31;;;12.83;100.00
17525;BME280;40431;52.198;9.902;2022-10-16T06:00:53;100386.88;;;12.88;100.00
17525;BME280;40431;52.198;9.902;2022-10-16T06:03:19;100390.56;;;12.86;100.00
17525;BME280;40431;52.198;9.902;2022-10-16T06:05:46;100404.06;;;12.88;100.00
17525;BME280;40431;52.198;9.902;2022-10-16T06:08:14;100404.72;;;12.92;100.00
17525;BME280;40431;52.198;9.902;2022-10-16T06:10:41;100405.47;;;12.94;100.00
17525;BME280;40431;52.198;9.902;2022-10-16T06:13:08;100402.63;;;12.95;100.00
17525;BME280;40431;52.198;9.902;2022-10-16T06:15:35;100398.16;;;13.07;100.00
17525;BME280;40431;52.198;9.902;2022-10-16T06:18:04;100394.66;;;13.05;100.00
17525;BME280;40431;52.198;9.902;2022-10-16T06:20:30;100391.50;;;13.11;100.00
17525;BME280;40431;52.198;9.902;2022-10-16T06:22:57;100396.44;;;13.17;100.00
17525;BME280;40431;52.198;9.902;2022-10-16T06:25:25;100419.00;;;13.19;100.00
17525;BME280;40431;52.198;9.902;2022-10-16T06:27:51;100418.88;;;13.21;100.00
17525;BME280;40431;52.198;9.902;2022-10-16T06:30:18;100420.94;;;13.30;100.00
17525;BME280;40431;52.198;9.902;2022-10-16T06:32:44;100425.84;;;13.25;100.00
17525;BME280;40431;52.198;9.902;2022-10-16T06:35:11;100431.69;;;13.32;100.00
17525;BME280;40431;52.198;9.902;2022-10-16T06:37:38;100432.91;;;13.41;100.00
17525;BME280;40431;52.198;9.902;2022-10-16T06:40:05;100416.69;;;13.39;100.00
17525;BME280;40431;52.198;9.902;2022-10-16T06:42:33;100418.31;;;13.42;100.00
17525;BME280;40431;52.198;9.902;2022-10-16T06:45:00;100436.16;;;13.46;100.00
17525;BME280;40431;52.198;9.902;2022-10-16T06:47:27;100435.69;;;13.52;100.00
17525;BME280;40431;52.198;9.902;2022-10-16T06:49:53;100435.78;;;13.50;100.00
17525;BME280;40431;52.198;9.902;2022-10-16T06:52:20;100445.88;;;13.61;100.00
17525;BME280;40431;52.198;9.902;2022-10-16T06:54:46;100444.56;;;13.67;100.00
17525;BME280;40431;52.198;9.902;2022-10-16T06:57:13;100432.44;;;13.71;100.00
17525;BME280;40431;52.198;9.902;2022-10-16T06:59:41;100445.59;;;13.77;100.00
17525;BME280;40431;52.198;9.902;2022-10-16T07:02:07;100455.06;;;13.96;100.00
17525;BME280;40431;52.198;9.902;2022-10-16T07:04:35;100458.31;;;14.01;100.00
17525;BME280;40431;52.198;9.902;2022-10-16T07:07:02;100462.84;;;14.13;100.00
17525;BME280;40431;52.198;9.902;2022-10-16T07:09:29;100453.81;;;14.24;100.00
17525;BME280;40431;52.198;9.902;2022-10-16T07:11:55;100449.25;;;14.36;100.00
17525;BME280;40431;52.198;9.902;2022-10-16T07:14:22;100442.31;;;14.43;100.00
17525;BME280;40431;52.198;9.902;2022-10-16T07:16:50;100465.16;;;14.53;100.00
17525;BME280;40431;52.198;9.902;2022-10-16T07:19:16;100471.84;;;14.61;100.00
17525;BME280;40431;52.198;9.902;2022-10-16T07:21:43;100477.38;;;14.72;100.00
17525;BME280;40431;52.198;9.902;2022-10-16T07:24:12;100471.66;;;14.75;100.00
17525;BME280;40431;52.198;9.902;2022-10-16T07:26:39;100464.75;;;14.82;100.00
17525;BME280;40431;52.198;9.902;2022-10-16T07:29:06;100478.84;;;14.88;100.00
17525;BME280;40431;52.198;9.902;2022-10-16T07:31:33;100477.88;;;15.00;100.00
17525;BME280;40431;52.198;9.902;2022-10-16T07:34:01;100478.88;;;14.99;100.00
17525;BME280;40431;52.198;9.902;2022-10-16T07:36:27;100492.63;;;15.09;100.00
17525;BME280;40431;52.198;9.902;2022-10-16T07:38:54;100511.13;;;15.16;100.00
17525;BME280;40431;52.198;9.902;2022-10-16T07:41:20;100497.75;;;15.13;100.00
17525;BME280;40431;52.198;9.902;2022-10-16T07:43:48;100492.50;;;15.22;100.00
17525;BME280;40431;52.198;9.902;2022-10-16T07:46:15;100494.38;;;15.32;100.00
17525;BME280;40431;52.198;9.902;2022-10-16T07:48:43;100506.66;;;15.38;100.00
17525;BME280;40431;52.198;9.902;2022-10-16T07:51:15;100514.09;;;15.47;99.89
17525;BME280;40431;52.198;9.902;2022-10-16T07:53:42;100521.28;;;15.60;99.44
17525;BME280;40431;52.198;9.902;2022-10-16T07:56:09;100518.16;;;15.64;98.04
17525;BME280;40431;52.198;9.902;2022-10-16T07:58:36;100514.56;;;15.64;97.30
17525;BME280;40431;52.198;9.902;2022-10-16T08:01:04;100514.03;;;15.70;96.02
17525;BME280;40431;52.198;9.902;2022-10-16T08:03:31;100522.50;;;15.67;96.78
17525;BME280;40431;52.198;9.902;2022-10-16T08:05:59;100530.84;;;15.65;97.39
17525;BME280;40431;52.198;9.902;2022-10-16T08:08:27;100527.47;;;15.62;98.04
17525;BME280;40431;52.198;9.902;2022-10-16T08:10:54;100523.50;;;15.66;98.07
17525;BME280;40431;52.198;9.902;2022-10-16T08:13:21;100523.25;;;15.69;97.60
17525;BME280;40431;52.198;9.902;2022-10-16T08:15:47;100544.84;;;15.72;97.89
17525;BME280;40431;52.198;9.902;2022-10-16T08:18:14;100541.13;;;15.73;97.04
17525;BME280;40431;52.198;9.902;2022-10-16T08:20:42;100551.31;;;15.71;96.98
17525;BME280;40431;52.198;9.902;2022-10-16T08:23:09;100553.31;;;15.69;97.45
17525;BME280;40431;52.198;9.902;2022-10-16T08:25:38;100557.41;;;15.75;97.27
17525;BME280;40431;52.198;9.902;2022-10-16T08:28:06;100557.00;;;15.79;97.02
17525;BME280;40431;52.198;9.902;2022-10-16T08:30:33;100557.28;;;15.76;97.73
17525;BME280;40431;52.198;9.902;2022-10-16T08:33:00;100562.13;;;15.73;98.36
17525;BME280;40431;52.198;9.902;2022-10-16T08:35:27;100561.53;;;15.69;98.50
17525;BME280;40431;52.198;9.902;2022-10-16T08:37:53;100560.63;;;15.80;99.01
17525;BME280;40431;52.198;9.902;2022-10-16T08:40:22;100564.38;;;15.90;97.24
17525;BME280;40431;52.198;9.902;2022-10-16T08:43:04;100553.16;;;15.93;96.56
17525;BME280;40431;52.198;9.902;2022-10-16T08:45:43;100567.41;;;16.08;97.98
17525;BME280;40431;52.198;9.902;2022-10-16T08:48:20;100568.66;;;16.15;97.26
17525;BME280;40431;52.198;9.902;2022-10-16T08:50:50;100567.75;;;16.26;95.79
17525;BME280;40431;52.198;9.902;2022-10-16T08:53:22;100566.22;;;16.33;94.35
17525;BME280;40431;52.198;9.902;2022-10-16T08:55:51;100568.28;;;16.41;92.80
17525;BME280;40431;52.198;9.902;2022-10-16T08:58:21;100574.75;;;16.40;92.87
17525;BME280;40431;52.198;9.902;2022-10-16T09:00:51;100578.13;;;16.32;92.91
17525;BME280;40431;52.198;9.902;2022-10-16T09:03:31;100579.75;;;16.35;93.31
17525;BME280;40431;52.198;9.902;2022-10-16T09:06:17;100583.75;;;16.31;91.67
17525;BME280;40431;52.198;9.902;2022-10-16T09:09:04;100581.78;;;16.22;90.48
17525;BME280;40431;52.198;9.902;2022-10-16T09:11:45;100582.19;;;16.17;89.97
17525;BME280;40431;52.198;9.902;2022-10-16T09:14:35;100584.81;;;16.18;89.57
17525;BME280;40431;52.198;9.902;2022-10-16T09:17:20;100585.41;;;16.22;89.68
17525;BME280;40431;52.198;9.902;2022-10-16T09:19:52;100594.69;;;16.31;88.74
17525;BME280;40431;52.198;9.902;2022-10-16T09:22:21;100598.19;;;16.33;88.53
17525;BME280;40431;52.198;9.902;2022-10-16T09:24:51;100599.69;;;16.26;87.81
17525;BME280;40431;52.198;9.902;2022-10-16T09:27:17;100603.53;;;16.23;88.55
17525;BME280;40431;52.198;9.902;2022-10-16T09:29:45;100595.59;;;16.31;88.45
17525;BME280;40431;52.198;9.902;2022-10-16T09:32:14;100604.84;;;16.40;88.02
17525;BME280;40431;52.198;9.902;2022-10-16T09:34:45;100599.72;;;16.47;88.02
17525;BME280;40431;52.198;9.902;2022-10-16T09:37:16;100614.50;;;16.56;87.01
17525;BME280;40431;52.198;9.902;2022-10-16T09:39:47;100608.38;;;16.63;86.74
17525;BME280;40431;52.198;9.902;2022-10-16T09:42:16;100611.56;;;16.68;87.19
17525;BME280;40431;52.198;9.902;2022-10-16T09:44:48;100616.53;;;16.75;85.99
17525;BME280;40431;52.198;9.902;2022-10-16T09:47:17;100617.13;;;16.78;84.62
17525;BME280;40431;52.198;9.902;2022-10-16T09:49:52;100626.81;;;16.82;83.88
17525;BME280;40431;52.198;9.902;2022-10-16T09:52:19;100618.47;;;16.84;85.54
17525;BME280;40431;52.198;9.902;2022-10-16T09:54:50;100629.28;;;16.85;84.20
17525;BME280;40431;52.198;9.902;2022-10-16T09:57:17;100622.31;;;16.93;83.41
17525;BME280;40431;52.198;9.902;2022-10-16T09:59:49;100627.25;;;16.99;83.11
17525;BME280;40431;52.198;9.902;2022-10-16T10:02:17;100627.56;;;17.06;82.83
17525;BME280;40431;52.198;9.902;2022-10-16T10:04:48;100632.06;;;17.07;82.71
17525;BME280;40431;52.198;9.902;2022-10-16T10:07:18;100642.63;;;17.11;80.69
17525;BME280;40431;52.198;9.902;2022-10-16T10:09:46;100647.56;;;17.17;81.12
17525;BME280;40431;52.198;9.902;2022-10-16T10:12:19;100642.22;;;17.16;81.52
17525;BME280;40431;52.198;9.902;2022-10-16T10:14:49;100654.78;;;17.18;80.37
17525;BME280;40431;52.198;9.902;2022-10-16T10:17:18;100646.41;;;17.20;78.57
17525;BME280;40431;52.198;9.902;2022-10-16T10:19:50;100635.66;;;17.28;79.77
17525;BME280;40431;52.198;9.902;2022-10-16T10:22:21;100652.88;;;17.40;78.23
17525;BME280;40431;52.198;9.902;2022-10-16T10:25:00;100647.16;;;17.43;75.85
17525;BME280;40431;52.198;9.902;2022-10-16T10:27:33;100645.13;;;17.45;76.42
17525;BME280;40431;52.198;9.902;2022-10-16T10:30:08;100646.00;;;17.46;75.88
17525;BME280;40431;52.198;9.902;2022-10-16T10:32:50;100656.22;;;17.44;75.79
17525;BME280;40431;52.198;9.902;2022-10-16T10:35:22;100665.06;;;17.47;75.55
17525;BME280;40431;52.198;9.902;2022-10-16T10:38:01;100667.38;;;17.52;75.83
17525;BME280;40431;52.198;9.902;2022-10-16T10:40:40;100656.88;;;17.57;75.77
17525;BME280;40431;52.198;9.902;2022-10-16T10:43:17;100654.31;;;17.65;75.03
17525;BME280;40431;52.198;9.902;2022-10-16T10:45:54;100660.84;;;17.74;75.52
17525;BME280;40431;52.198;9.902;2022-10-16T10:48:47;100662.03;;;17.81;74.64
17525;BME280;40431;52.198;9.902;2022-10-16T10:51:22;100678.13;;;17.96;73.93
17525;BME280;40431;52.198;9.902;2022-10-16T10:53:56;100669.66;;;17.99;72.49
17525;BME280;40431;52.198;9.902;2022-10-16T10:56:41;100668.63;;;18.00;72.25
17525;BME280;40431;52.198;9.902;2022-10-16T10:59:24;100670.38;;;18.01;72.89
17525;BME280;40431;52.198;9.902;2022-10-16T11:02:03;100672.09;;;18.02;73.01
17525;BME280;40431;52.198;9.902;2022-10-16T11:04:47;100674.81;;;17.92;70.87
17525;BME280;40431;52.198;9.902;2022-10-16T11:07:23;100676.44;;;17.74;71.56
17525;BME280;40431;52.198;9.902;2022-10-16T11:09:53;100675.09;;;17.68;72.27
17525;BME280;40431;52.198;9.902;2022-10-16T11:12:26;100672.34;;;17.68;72.68
17525;BME280;40431;52.198;9.902;2022-10-16T11:14:57;100669.22;;;17.73;71.86
17525;BME280;40431;52.198;9.902;2022-10-16T11:17:31;100678.59;;;17.70;72.31
17525;BME280;40431;52.198;9.902;2022-10-16T11:20:02;100674.56;;;17.74;72.89
17525;BME280;40431;52.198;9.902;2022-10-16T11:22:34;100672.75;;;17.84;72.19
17525;BME280;40431;52.198;9.902;2022-10-16T11:25:06;100673.66;;;17.95;72.10
17525;BME280;40431;52.198;9.902;2022-10-16T11:27:41;100672.81;;;18.04;70.83
17525;BME280;40431;52.198;9.902;2022-10-16T11:30:14;100671.13;;;18.13;70.83
17525;BME280;40431;52.198;9.902;2022-10-16T11:32:52;100683.69;;;18.15;69.11
17525;BME280;40431;52.198;9.902;2022-10-16T11:35:23;100688.91;;;18.18;68.38
17525;BME280;40431;52.198;9.902;2022-10-16T11:37:51;100690.50;;;18.21;68.99
17525;BME280;40431;52.198;9.902;2022-10-16T11:40:24;100692.09;;;18.24;69.18
17525;BME280;40431;52.198;9.902;2022-10-16T11:42:54;100687.91;;;18.29;68.79
17525;BME280;40431;52.198;9.902;2022-10-16T11:45:29;100694.88;;;18.33;66.54
17525;BME280;40431;52.198;9.902;2022-10-16T11:48:06;100697.78;;;18.42;66.92
17525;BME280;40431;52.198;9.902;2022-10-16T11:50:37;100691.16;;;18.44;65.95
17525;BME280;40431;52.198;9.902;2022-10-16T11:53:13;100702.28;;;18.52;64.20
17525;BME280;40431;52.198;9.902;2022-10-16T11:55:43;100699.97;;;18.58;64.18
17525;BME280;40431;52.198;9.902;2022-10-16T11:58:16;100704.03;;;18.63;65.33
17525;BME280;40431;52.198;9.902;2022-10-16T12:00:53;100707.38;;;18.67;64.88
17525;BME280;40431;52.198;9.902;2022-10-16T12:03:27;100701.88;;;18.67;64.07
17525;BME280;40431;52.198;9.902;2022-10-16T12:06:16;100711.69;;;18.69;64.85
17525;BME280;40431;52.198;9.902;2022-10-16T12:08:45;100715.16;;;18.72;65.45
17525;BME280;40431;52.198;9.902;2022-10-16T12:11:23;100703.31;;;18.71;65.33
17525;BME280;40431;52.198;9.902;2022-10-16T12:13:51;100715.19;;;18.81;64.00
17525;BME280;40431;52.198;9.902;2022-10-16T12:16:29;100706.50;;;18.86;63.74
17525;BME280;40431;52.198;9.902;2022-10-16T12:19:11;100706.22;;;18.89;65.29
17525;BME280;40431;52.198;9.902;2022-10-16T12:21:37;100713.19;;;18.93;64.39
17525;BME280;40431;52.198;9.902;2022-10-16T12:24:05;100711.31;;;18.94;64.66
17525;BME280;40431;52.198;9.902;2022-10-16T12:26:33;100713.06;;;18.95;63.94
17525;BME280;40431;52.198;9.902;2022-10-16T12:29:13;100712.91;;;18.96;63.85
17525;BME280;40431;52.198;9.902;2022-10-16T12:31:44;100714.50;;;18.99;63.09
17525;BME280;40431;52.198;9.902;2022-10-16T12:34:22;100715.06;;;19.02;62.54
17525;BME280;40431;52.198;9.902;2022-10-16T12:36:51;100714.63;;;19.07;64.03
17525;BME280;40431;52.198;9.902;2022-10-16T12:39:22;100710.44;;;19.13;63.60
17525;BME280;40431;52.198;9.902;2022-10-16T12:42:00;100716.66;;;19.15;62.58
17525;BME280;40431;52.198;9.902;2022-10-16T12:44:32;100718.13;;;19.09;62.96
17525;BME280;40431;52.198;9.902;2022-10-16T12:46:59;100722.03;;;19.07;62.34
17525;BME280;40431;52.198;9.902;2022-10-16T12:49:34;100724.63;;;19.08;62.59
17525;BME280;40431;52.198;9.902;2022-10-16T12:52:03;100712.31;;;19.12;63.39
17525;BME280;40431;52.198;9.902;2022-10-16T12:54:31;100721.56;;;19.21;62.58
17525;BME280;40431;52.198;9.902;2022-10-16T12:57:09;100721.28;;;19.24;63.13
17525;BME280;40431;52.198;9.902;2022-10-16T12:59:44;100729.38;;;19.26;63.41